• Join FlightAware (Why Join?)
  • Login
  • US Flag 
09:00AM EDT


 

Airport Tracker/Info


-or-


 

Live Flight TrackerFlight Track Log ✈ SWA720 ✈ 04-May-2013 ✈ KPHX - KSAN

Flight Track Log - Related Links

Times and Time Zones

All times are in EDT time to prevent confusion due to time zone crossing. See the SWA720 flight status page for this flight to view local times or setup timezone preferences in your user account.

Time Position Orientation Groundspeed Altitude Reporting Facility
EDT Latitude Longitude Course Direction KTS MPH feet Rate Location/Type
10:25PM 33.4333 -112.0333 250° West 183 211 2,000  Level Phoenix TRACON
10:25PM 33.4261 -112.0575 250° West 178 205 2,700 1,980 Climbing Albuquerque Center
10:26PM 33.4053 -112.1269 250° West 218 251 4,900 2,520 Climbing Albuquerque Center
10:27PM 33.3617 -112.1903 231° Southwest 264 304 7,900 2,820 Climbing Albuquerque Center
10:28PM 33.2875 -112.2119 194° South 275 316 10,700 2,700 Climbing Albuquerque Center
10:29PM 33.2192 -112.2606 211° Southwest 299 344 13,500 1,680 Climbing Albuquerque Center
10:30PM 33.1647 -112.3447 232° Southwest 325 374 14,200 1,320 Climbing Albuquerque Center
10:31PM 33.0950 -112.4564 233° Southwest 385 443 16,200 2,160 Climbing Albuquerque Center
10:32PM 33.0303 -112.5567 232° Southwest 385 443 18,600 1,860 Climbing Albuquerque Center
10:33PM 32.9661 -112.6608 234° Southwest 390 449 20,100 1,440 Climbing Albuquerque Center
10:34PM 32.9406 -112.7906 257° West 403 464 21,600 1,380 Climbing Albuquerque Center
10:35PM 32.9217 -112.9236 260° West 409 471 23,000 1,380 Climbing Albuquerque Center
10:36PM 32.9044 -113.0572 261° West 412 474 24,500 1,560 Climbing Albuquerque Center
10:37PM 32.8861 -113.1914 261° West 414 476 26,200 1,620 Climbing Albuquerque Center
10:38PM 32.8678 -113.3250 261° West 413 475 27,800 1,680 Climbing Albuquerque Center
10:39PM 32.8497 -113.4578 261° West 411 473 29,700 1,920 Climbing Albuquerque Center
10:40PM 32.8275 -113.6117 260° West 399 459 31,700 1,080 Climbing Albuquerque Center
10:41PM 32.8086 -113.7375 260° West 391 450 31,900 60 Climbing Albuquerque Center
10:42PM 32.7922 -113.8636 261° West 388 447 31,900  Level Albuquerque Center
10:43PM 32.7739 -113.9886 260° West 387 445 31,900  Level Albuquerque Center
10:44PM 32.7750 -114.1150 271° West 385 443 31,900  Level Albuquerque Center
10:45PM 32.7733 -114.2425 269° West 385 443 31,900  Level Albuquerque Center
10:46PM 32.7714 -114.3694 269° West 385 443 31,900  Level Albuquerque Center
10:47PM 32.7681 -114.4961 268° West 385 443 31,900 -480 Level Albuquerque Center
10:49PM 32.7664 -114.6325 269° West 387 445 30,900 -1,020 Descending Los Angeles Center
10:50PM 32.7647 -114.7908 269° West 398 458 29,800 -1,080 Descending Los Angeles Center
10:51PM 32.7622 -114.9247 269° West 404 465 28,800 -960 Descending Los Angeles Center
10:52PM 32.7583 -115.0608 268° West 411 473 27,900 -960 Descending Los Angeles Center
10:53PM 32.7553 -115.1978 269° West 415 478 26,900 -1,020 Descending Los Angeles Center
10:54PM 32.7522 -115.3350 269° West 416 479 25,900 -1,020 Descending Los Angeles Center
10:55PM 32.7492 -115.4736 269° West 421 484 24,900 -1,020 Descending Los Angeles Center
10:56PM 32.7497 -115.6114 270° West 420 483 23,900 -1,080 Descending Los Angeles Center
10:57PM 32.7536 -115.7447 272° West 408 470 22,800 -1,440 Descending Los Angeles Center
10:58PM 32.7578 -115.9008 272° West 397 457 20,800 -2,280 Descending Los Angeles Center
10:59PM 32.7611 -116.0286 272° West 389 448 17,800 -2,940 Descending Los Angeles Center
11:00PM 32.7644 -116.1706 272° West 359 413 14,800 -1,980 Descending Los Angeles Center
11:01PM 32.7661 -116.2808 271° West 334 384 13,800 -1,500 Descending Los Angeles Center
11:02PM 32.7517 -116.3864 261° West 322 371 11,800 -2,040 Descending Los Angeles Center
11:03PM 32.7367 -116.4906 260° West 318 366 9,700 -1,020 Descending Los Angeles Center
11:04PM 32.7233 -116.5831 260° West 290 334 9,800 -780 Climbing Los Angeles Center
11:05PM 32.7117 -116.6714 261° West 276 318 8,200 -1,500 Descending Los Angeles Center
11:06PM 32.7094 -116.7581 268° West 267 307 6,800 -1,320 Descending Los Angeles Center
11:07PM 32.7025 -116.8400 264° West 255 293 5,600 -1,080 Descending Los Angeles Center
11:08PM 32.6833 -116.8833 242° Southwest 226 260 5,100 -1,020 Descending Southern California TRACON
11:09PM 32.6833 -116.9500 270° West 212 244 4,000 -1,080 Descending Southern California TRACON
11:10PM 32.6833 -117.0167 270° West 193 222 3,000 -1,020 Descending Southern California TRACON
11:11PM 32.7000 -117.0667 292° West 177 204 2,000 -900 Descending Southern California TRACON
11:12PM 32.7167 -117.1167 292° West 152 175 1,200 -840 Descending Southern California TRACON
11:12PM 32.7194 -117.1353 280° West 157 181 800 -780 Descending Los Angeles Center
11:15PM 32.7333 -117.1833 281° West  Level FlightAware Approximate